Time;durP1;ratioP1;P1;durP2;ratioP2;P2;SDS_P1;SDS_P2;PMS_P1;PMS_P2;Temp;Humidity;BMP_temperature;BMP_pressure;BME280_temperature;BME280_humidity;BME280_pressure;Samples;Min_cycle;Max_cycle;Signal;HPM_P1;HPM_P2
2021/05/16 00:00:31;;;;;;;7.68;5.10;;;;;;;11.09;83.55;99346.03;3605776;39;20052;-66
2021/05/16 00:02:58;;;;;;;7.28;4.65;;;;;;;11.06;83.65;99341.06;3606353;39;20047;-65
2021/05/16 00:05:28;;;;;;;5.15;3.78;;;;;;;11.03;83.88;99343.00;3606288;39;20056;-68
2021/05/16 00:07:56;;;;;;;4.10;3.58;;;;;;;11.04;84.17;99341.19;3606198;39;20051;-66
2021/05/16 00:10:25;;;;;;;5.63;4.40;;;;;;;11.02;84.16;99337.91;3603801;39;20055;-65
2021/05/16 00:12:55;;;;;;;5.15;3.70;;;;;;;11.02;83.09;99346.56;3606210;39;20425;-67
2021/05/16 00:15:24;;;;;;;4.03;2.90;;;;;;;11.02;84.30;99349.19;3606198;39;20079;-67
2021/05/16 00:17:52;;;;;;;4.93;3.70;;;;;;;11.05;83.48;99344.63;3606049;39;20132;-67
2021/05/16 00:20:23;;;;;;;6.15;4.10;;;;;;;11.06;82.78;99346.28;3605999;39;20581;-67
2021/05/16 00:22:50;;;;;;;4.43;3.30;;;;;;;11.03;83.86;99350.84;3605992;39;20047;-66
2021/05/16 00:25:20;;;;;;;10.82;4.20;;;;;;;11.05;82.66;99349.88;3605739;39;20055;-66
2021/05/16 00:27:48;;;;;;;5.93;3.97;;;;;;;11.02;83.90;99345.75;3596467;39;20047;-67
2021/05/16 00:30:18;;;;;;;4.90;4.22;;;;;;;10.95;83.26;99353.28;3605793;39;20063;-66
2021/05/16 00:32:47;;;;;;;4.80;4.20;;;;;;;10.90;83.83;99357.28;3605808;39;20048;-67
2021/05/16 00:35:17;;;;;;;6.45;5.00;;;;;;;10.86;84.22;99361.13;3605757;39;20043;-67
2021/05/16 00:37:45;;;;;;;4.97;4.22;;;;;;;10.81;84.33;99363.31;3605864;39;20060;-67
2021/05/16 00:40:13;;;;;;;6.65;5.47;;;;;;;10.82;82.80;99370.19;3605672;39;20048;-68
2021/05/16 00:42:40;;;;;;;6.18;5.18;;;;;;;10.82;83.50;99367.59;3603934;39;20054;-66
2021/05/16 00:45:22;;;;;;;5.75;4.60;;;;;;;10.76;85.62;99361.94;3606331;39;20067;-68
2021/05/16 00:47:56;;;;;;;7.00;5.60;;;;;;;10.65;84.63;99364.66;3605642;39;20051;-67
2021/05/16 00:50:31;;;;;;;7.25;5.93;;;;;;;10.59;84.13;99359.13;3605747;39;20054;-67
2021/05/16 00:52:59;;;;;;;6.50;4.72;;;;;;;10.59;84.62;99356.53;3605802;39;20059;-68
2021/05/16 00:55:27;;;;;;;5.68;5.07;;;;;;;10.59;83.79;99352.13;3596238;39;20056;-67
2021/05/16 00:57:54;;;;;;;5.07;4.25;;;;;;;10.57;84.21;99358.44;3605819;39;20052;-67
2021/05/16 01:00:25;;;;;;;5.22;4.18;;;;;;;10.56;84.06;99359.41;3605715;39;20043;-67
2021/05/16 01:02:58;;;;;;;5.93;4.57;;;;;;;10.51;84.62;99365.00;3594544;39;20363;-67
2021/05/16 01:05:27;;;;;;;4.88;2.95;;;;;;;10.42;84.39;99357.97;3605557;39;20078;-67
2021/05/16 01:07:55;;;;;;;5.22;3.25;;;;;;;10.40;84.13;99360.72;3595606;39;20051;-67
2021/05/16 01:10:22;;;;;;;4.07;2.85;;;;;;;10.40;83.05;99359.88;3595968;39;20044;-66
2021/05/16 01:12:54;;;;;;;4.05;2.53;;;;;;;10.32;83.49;99368.38;3594275;40;20117;-67
2021/05/16 01:15:25;;;;;;;;;;;;;;;10.26;85.76;99368.91;3595760;39;20410;-67
2021/05/16 01:17:55;;;;;;;4.18;3.08;;;;;;;10.21;83.67;99358.81;3595400;39;20289;-67
2021/05/16 01:20:29;;;;;;;3.80;2.80;;;;;;;10.11;85.95;99355.31;3595451;39;20141;-67
2021/05/16 01:23:06;;;;;;;4.07;2.40;;;;;;;10.11;84.20;99351.84;3595673;39;20041;-67
2021/05/16 01:25:42;;;;;;;4.65;2.97;;;;;;;10.07;84.61;99355.72;3594338;40;20044;-67
2021/05/16 01:28:10;;;;;;;;;;;;;;;10.06;85.21;99344.41;3595006;40;20327;-67
2021/05/16 01:30:40;;;;;;;2.42;1.55;;;;;;;9.98;84.79;99350.28;3595577;39;19936;-68
2021/05/16 01:33:08;;;;;;;4.38;2.55;;;;;;;9.92;84.36;99349.97;3595568;39;20088;-67
2021/05/16 01:35:36;;;;;;;6.40;2.90;;;;;;;9.92;84.53;99348.19;3594163;40;20044;-67
2021/05/16 01:38:07;;;;;;;3.30;2.22;;;;;;;9.77;85.60;99367.75;3594268;40;20044;-68
2021/05/16 01:40:38;;;;;;;5.20;2.53;;;;;;;9.80;84.78;99361.44;3595323;39;20052;-67
2021/05/16 01:43:16;;;;;;;3.20;2.13;;;;;;;9.77;84.87;99362.50;3594584;40;20059;-67
2021/05/16 01:45:45;;;;;;;4.57;2.30;;;;;;;9.80;83.95;99361.44;3595295;40;20055;-67
2021/05/16 01:48:12;;;;;;;4.45;2.33;;;;;;;9.79;85.04;99362.41;3595127;39;20434;-68
2021/05/16 01:50:41;;;;;;;3.65;2.25;;;;;;;9.79;84.82;99358.00;3593522;40;20302;-66
2021/05/16 01:53:10;;;;;;;3.13;1.95;;;;;;;9.85;84.14;99356.66;3595155;39;20068;-67
2021/05/16 01:55:37;;;;;;;3.75;1.77;;;;;;;9.88;84.35;99349.41;3595219;39;20048;-67
2021/05/16 01:58:06;;;;;;;2.70;1.90;;;;;;;9.87;84.97;99350.34;3593912;40;20109;-67
2021/05/16 02:00:43;;;;;;;4.40;2.13;;;;;;;9.88;85.04;99343.38;3595429;39;20606;-66
2021/05/16 02:03:25;;;;;;;4.53;3.00;;;;;;;9.82;85.11;99341.25;3595661;40;20056;-67
2021/05/16 02:05:53;;;;;;;3.08;2.10;;;;;;;9.75;85.29;99346.16;3596799;39;20388;-67
2021/05/16 02:08:20;;;;;;;5.03;2.58;;;;;;;9.72;84.67;99344.63;3596559;39;20044;-67
2021/05/16 02:10:49;;;;;;;4.50;2.45;;;;;;;9.67;84.86;99349.41;3595722;40;20060;-67
2021/05/16 02:13:17;;;;;;;4.25;2.00;;;;;;;9.68;85.07;99351.03;3595430;40;20044;-67
2021/05/16 02:15:55;;;;;;;3.40;2.30;;;;;;;9.72;84.94;99347.22;3595454;40;20048;-66
2021/05/16 02:18:25;;;;;;;5.60;2.15;;;;;;;9.77;84.57;99346.84;3595827;40;20415;-64
2021/05/16 02:20:59;;;;;;;3.42;2.08;;;;;;;9.74;84.11;99334.88;3596806;39;20337;-65
2021/05/16 02:23:27;;;;;;;3.30;1.80;;;;;;;9.74;84.76;99350.56;3596685;40;20060;-66
2021/05/16 02:25:55;;;;;;;4.13;2.38;;;;;;;9.79;83.94;99350.19;3595631;40;20064;-67
2021/05/16 02:28:25;;;;;;;5.28;2.58;;;;;;;9.79;85.12;99352.78;3596534;39;20068;-65
2021/05/16 02:30:55;;;;;;;5.28;2.67;;;;;;;9.84;84.76;99360.25;3596478;40;20060;-67
2021/05/16 02:33:24;;;;;;;3.92;2.38;;;;;;;9.85;84.88;99346.22;3596837;39;20072;-67
2021/05/16 02:35:52;;;;;;;4.68;2.38;;;;;;;9.85;83.34;99348.84;3596800;39;20048;-67
2021/05/16 02:38:19;;;;;;;5.93;2.78;;;;;;;9.85;84.72;99347.03;3595289;40;20087;-67
2021/05/16 02:40:46;;;;;;;4.30;2.60;;;;;;;9.84;85.36;99349.78;3593110;40;20055;-67
2021/05/16 02:43:14;;;;;;;2.80;1.70;;;;;;;9.87;84.49;99350.34;3596780;40;20092;-67
2021/05/16 02:45:42;;;;;;;3.92;2.72;;;;;;;9.88;83.83;99341.56;3595320;40;20048;-68
2021/05/16 02:48:15;;;;;;;3.25;1.80;;;;;;;9.88;84.56;99338.13;3595516;40;20072;-67
2021/05/16 02:50:43;;;;;;;3.83;2.25;;;;;;;9.78;84.47;99337.22;3595395;40;20067;-67
2021/05/16 02:53:13;;;;;;;3.45;1.90;;;;;;;9.79;84.75;99339.72;3596584;39;20047;-67
2021/05/16 02:55:51;;;;;;;4.60;2.40;;;;;;;9.75;84.21;99351.38;3595110;40;20047;-67
2021/05/16 02:58:19;;;;;;;3.75;1.92;;;;;;;9.75;84.91;99348.78;3595181;40;20048;-68
2021/05/16 03:00:53;;;;;;;5.57;2.22;;;;;;;9.78;84.21;99350.28;3596248;39;20388;-67
2021/05/16 03:03:21;;;;;;;4.55;2.83;;;;;;;9.74;84.80;99352.34;3596206;40;20141;-66
2021/05/16 03:05:52;;;;;;;3.53;2.33;;;;;;;9.73;84.52;99348.06;3594942;40;20052;-67
2021/05/16 03:08:22;;;;;;;3.67;1.98;;;;;;;9.75;85.00;99351.38;3595044;40;20414;-66
2021/05/16 03:10:50;;;;;;;3.83;2.33;;;;;;;9.75;84.67;99351.38;3595187;39;20165;-66
2021/05/16 03:13:18;;;;;;;4.07;1.83;;;;;;;9.78;83.96;99352.91;3595022;40;20036;-66
2021/05/16 03:15:46;;;;;;;11.43;2.42;;;;;;;9.78;83.86;99350.28;3596379;39;20117;-67
2021/05/16 03:18:14;;;;;;;2.58;1.38;;;;;;;9.83;84.34;99348.97;3593286;40;20105;-67
2021/05/16 03:20:44;;;;;;;3.38;2.22;;;;;;;9.81;84.55;99352.66;3595266;40;20044;-67
2021/05/16 03:23:13;;;;;;;3.67;1.90;;;;;;;9.85;84.13;99341.81;3595384;40;20137;-64
2021/05/16 03:25:41;;;;;;;4.90;2.42;;;;;;;9.84;83.84;99345.41;3594457;40;20105;-64
2021/05/16 03:28:08;;;;;;;3.58;2.20;;;;;;;9.78;84.17;99347.66;3595467;40;20329;-64
2021/05/16 03:30:36;;;;;;;2.67;1.73;;;;;;;9.79;83.91;99334.50;3596336;39;20447;-63
2021/05/16 03:33:04;;;;;;;3.83;1.90;;;;;;;9.77;83.54;99348.63;3596314;39;20078;-64
2021/05/16 03:35:31;;;;;;;3.97;1.90;;;;;;;9.78;84.98;99339.84;3596373;40;20066;-64
2021/05/16 03:37:59;;;;;;;2.85;1.77;;;;;;;9.82;85.17;99338.63;3595956;39;20062;-66
2021/05/16 03:40:31;;;;;;;5.22;2.10;;;;;;;9.88;84.40;99343.38;3595214;40;20048;-65
2021/05/16 03:42:58;;;;;;;3.75;2.03;;;;;;;9.88;84.53;99343.38;3595988;40;20059;-64
2021/05/16 03:45:26;;;;;;;3.88;1.80;;;;;;;9.92;84.03;99350.81;3596054;40;20044;-64
2021/05/16 03:47:53;;;;;;;4.05;2.20;;;;;;;9.91;83.50;99343.91;3595899;40;20086;-64
2021/05/16 03:50:20;;;;;;;2.75;1.70;;;;;;;9.94;83.03;99342.84;3596020;40;20047;-66
2021/05/16 03:52:47;;;;;;;3.58;2.20;;;;;;;9.97;82.52;99343.41;3595056;40;20051;-65
2021/05/16 03:55:16;;;;;;;4.30;2.50;;;;;;;10.03;82.72;99349.09;3596013;40;20572;-64
2021/05/16 03:57:44;;;;;;;4.10;2.33;;;;;;;10.02;83.54;99345.66;3595748;39;20072;-66
2021/05/16 04:00:12;;;;;;;4.03;1.92;;;;;;;10.04;83.39;99346.34;3595462;40;20441;-66
2021/05/16 04:02:41;;;;;;;2.15;1.50;;;;;;;10.08;83.48;99345.13;3595936;39;20056;-65
2021/05/16 04:05:10;;;;;;;3.88;2.13;;;;;;;10.13;83.12;99340.34;3596210;40;20056;-64
2021/05/16 04:07:37;;;;;;;3.67;1.90;;;;;;;10.17;83.53;99338.28;3595679;39;20418;-67
2021/05/16 04:10:06;;;;;;;4.60;2.50;;;;;;;10.20;84.02;99340.63;3595949;40;20453;-65
2021/05/16 04:12:33;;;;;;;3.20;1.80;;;;;;;10.26;83.97;99342.78;3601714;39;20040;-66
2021/05/16 04:15:01;;;;;;;4.03;2.00;;;;;;;10.26;82.67;99345.38;3606135;39;20128;-65
2021/05/16 04:17:28;;;;;;;3.80;1.98;;;;;;;10.22;82.46;99343.97;3605805;39;20043;-67
2021/05/16 04:19:55;;;;;;;4.30;1.90;;;;;;;10.23;82.53;99351.66;3605902;39;20132;-66
2021/05/16 04:22:22;;;;;;;3.58;1.85;;;;;;;10.25;82.20;99360.25;3596476;39;20337;-66
2021/05/16 04:24:53;;;;;;;4.43;2.08;;;;;;;10.23;82.67;99362.09;3605504;39;20044;-66
2021/05/16 04:27:21;;;;;;;3.70;1.85;;;;;;;10.23;82.47;99356.06;3605728;39;20055;-65
2021/05/16 04:29:48;;;;;;;4.07;2.20;;;;;;;10.22;82.56;99355.22;3605935;39;20062;-65
2021/05/16 04:32:15;;;;;;;2.75;1.80;;;;;;;10.25;82.28;99354.16;3605940;39;20128;-66
2021/05/16 04:34:43;;;;;;;4.50;2.20;;;;;;;10.20;82.10;99359.75;3606105;39;20056;-66
2021/05/16 04:37:10;;;;;;;3.53;2.08;;;;;;;10.18;81.84;99359.06;3603749;39;20047;-66
2021/05/16 04:39:38;;;;;;;3.13;1.90;;;;;;;10.19;82.47;99349.44;3606016;39;20044;-66
2021/05/16 04:42:05;;;;;;;3.28;2.15;;;;;;;10.23;82.30;99353.44;3605996;39;20071;-64
2021/05/16 04:44:32;;;;;;;4.20;2.22;;;;;;;10.24;82.37;99357.72;3605823;39;20053;-62
2021/05/16 04:47:00;;;;;;;14.50;8.13;;;;;;;10.23;82.50;99358.66;3606189;39;20148;-72
2021/05/16 04:49:27;;;;;;;23.00;12.40;;;;;;;10.27;82.51;99367.94;3605941;39;20067;-67
2021/05/16 04:51:54;;;;;;;15.55;7.38;;;;;;;10.27;82.44;99365.31;3605871;39;20043;-74
2021/05/16 04:54:23;;;;;;;5.22;2.90;;;;;;;10.33;81.44;99367.41;3605772;39;20047;-70
2021/05/16 04:56:50;;;;;;;4.15;2.08;;;;;;;10.30;81.55;99370.28;3606123;39;20052;-72
2021/05/16 04:59:17;;;;;;;3.85;1.92;;;;;;;10.28;82.00;99374.81;3605732;39;20063;-70
2021/05/16 05:01:45;;;;;;;6.10;2.33;;;;;;;10.36;81.07;99374.19;3605771;39;20143;-66
2021/05/16 05:04:12;;;;;;;4.95;2.97;;;;;;;10.44;81.62;99366.50;3605367;39;20074;-61
2021/05/16 05:06:40;;;;;;;11.70;6.00;;;;;;;10.50;80.37;99361.56;3605648;39;20056;-62
2021/05/16 05:09:09;;;;;;;22.92;12.35;;;;;;;10.50;80.29;99371.22;3605862;39;20070;-71
2021/05/16 05:11:37;;;;;;;5.30;3.30;;;;;;;10.46;80.97;99368.03;3605381;39;20140;-67
2021/05/16 05:14:04;;;;;;;6.40;2.80;;;;;;;10.48;81.01;99366.09;3603681;39;20059;-69
2021/05/16 05:16:32;;;;;;;5.75;2.13;;;;;;;10.52;81.09;99369.28;3605712;39;20058;-67
2021/05/16 05:18:59;;;;;;;4.13;2.33;;;;;;;10.50;81.13;99363.38;3605510;39;20047;-63
2021/05/16 05:21:26;;;;;;;3.83;2.13;;;;;;;10.54;81.20;99371.75;3605555;39;20051;-65
2021/05/16 05:23:54;;;;;;;2.85;1.83;;;;;;;10.47;81.50;99372.28;3605794;39;20039;-66
2021/05/16 05:26:21;;;;;;;3.97;1.92;;;;;;;10.45;81.95;99370.78;3595955;39;20063;-67
2021/05/16 05:28:49;;;;;;;3.30;1.88;;;;;;;10.50;81.81;99377.25;3605753;39;20113;-64
2021/05/16 05:31:16;;;;;;;12.65;6.47;;;;;;;10.50;80.81;99373.81;3605249;39;20066;-67
2021/05/16 05:33:43;;;;;;;20.77;10.32;;;;;;;10.46;81.08;99381.09;3595981;39;20056;-70
2021/05/16 05:36:11;;;;;;;9.52;4.03;;;;;;;10.46;80.30;99373.25;3606975;39;20047;-68
2021/05/16 05:38:40;;;;;;;3.90;2.08;;;;;;;10.46;80.93;99377.66;3597314;39;20055;-72
2021/05/16 05:41:08;;;;;;;7.22;1.95;;;;;;;10.46;81.33;99373.25;3604774;39;20047;-73
2021/05/16 05:43:35;;;;;;;2.83;1.70;;;;;;;10.47;80.25;99379.31;3607194;39;20048;-70
2021/05/16 05:46:03;;;;;;;4.85;2.17;;;;;;;10.50;79.84;99373.81;3606921;39;20063;-76
2021/05/16 05:48:34;;;;;;;4.22;1.98;;;;;;;10.48;81.23;99368.72;3606503;39;20101;-70
2021/05/16 05:51:02;;;;;;;3.72;2.30;;;;;;;10.50;80.78;99368.59;3606921;39;20059;-69
2021/05/16 05:53:29;;;;;;;3.20;2.00;;;;;;;10.63;80.83;99366.56;3606949;39;20414;-72
2021/05/16 05:55:57;;;;;;;4.38;2.47;;;;;;;10.72;80.70;99362.31;3597031;39;20433;-72
2021/05/16 05:58:24;;;;;;;5.25;2.17;;;;;;;10.85;79.80;99368.16;3606765;39;20055;-72
2021/05/16 06:00:52;;;;;;;3.83;2.00;;;;;;;10.96;79.58;99369.81;3606854;39;20058;-72
2021/05/16 06:03:19;;;;;;;3.75;2.00;;;;;;;11.12;79.18;99372.75;3606750;39;20054;-72
2021/05/16 06:05:47;;;;;;;3.22;1.90;;;;;;;11.37;78.11;99378.44;3606498;39;20047;-72
2021/05/16 06:08:15;;;;;;;4.95;2.50;;;;;;;11.53;78.38;99376.91;3606585;39;20097;-71
2021/05/16 06:10:43;;;;;;;4.03;1.83;;;;;;;11.75;77.63;99367.94;3606357;39;20093;-71
2021/05/16 06:13:11;;;;;;;3.63;1.95;;;;;;;11.80;76.75;99384.06;3606528;39;20048;-71
2021/05/16 06:15:39;;;;;;;4.60;2.00;;;;;;;11.85;76.95;99375.81;3606265;39;20418;-67
2021/05/16 06:18:07;;;;;;;3.65;1.90;;;;;;;12.08;77.22;99384.19;3606315;39;20043;-67
2021/05/16 06:20:34;;;;;;;35.20;17.90;;;;;;;12.26;76.77;99382.50;3596970;39;20051;-64
2021/05/16 06:23:04;;;;;;;17.92;9.90;;;;;;;12.22;75.63;99385.56;3606726;39;20047;-64
2021/05/16 06:25:32;;;;;;;24.23;13.55;;;;;;;12.28;75.51;99382.34;3604623;39;20043;-66
2021/05/16 06:27:59;;;;;;;5.10;2.60;;;;;;;12.13;75.22;99381.97;3606383;39;20083;-65
2021/05/16 06:30:28;;;;;;;2.88;1.95;;;;;;;12.24;75.42;99389.66;3606485;39;20156;-65
2021/05/16 06:32:55;;;;;;;2.95;1.85;;;;;;;12.28;75.85;99383.16;3606589;39;20321;-67
2021/05/16 06:35:22;;;;;;;4.93;1.70;;;;;;;12.31;76.28;99384.69;3596723;39;20056;-61
2021/05/16 06:37:54;;;;;;;2.63;1.80;;;;;;;12.30;75.75;99380.44;3606262;39;20056;-68
2021/05/16 06:40:22;;;;;;;3.00;1.40;;;;;;;12.26;75.70;99379.06;3606356;39;20498;-63
2021/05/16 06:42:49;;;;;;;3.20;1.67;;;;;;;12.31;75.92;99384.69;3606739;39;20123;-60
2021/05/16 06:45:16;;;;;;;1.98;1.20;;;;;;;12.33;74.62;99389.78;3606757;39;20047;-63
2021/05/16 06:47:44;;;;;;;2.25;1.50;;;;;;;12.41;74.71;99393.34;3606606;39;20047;-66
2021/05/16 06:50:11;;;;;;;3.58;1.75;;;;;;;12.39;74.16;99391.84;3606082;39;20065;-64
2021/05/16 06:52:39;;;;;;;4.55;1.77;;;;;;;12.30;74.90;99398.78;3606267;39;20048;-64
2021/05/16 06:55:07;;;;;;;2.45;1.48;;;;;;;12.37;74.96;99399.03;3606307;39;20109;-64
2021/05/16 06:57:35;;;;;;;3.28;2.25;;;;;;;12.28;74.43;99404.16;3606617;39;20410;-63
2021/05/16 07:00:03;;;;;;;3.35;2.33;;;;;;;12.41;74.86;99395.16;3606385;39;20132;-64
2021/05/16 07:02:30;;;;;;;5.13;1.90;;;;;;;12.33;74.01;99403.72;3606463;39;20049;-64
2021/05/16 07:05:01;;;;;;;2.70;1.45;;;;;;;12.26;74.13;99397.41;3597247;39;20047;-65
2021/05/16 07:07:34;;;;;;;2.25;1.70;;;;;;;12.36;76.48;99405.25;3605957;39;20048;-66
2021/05/16 07:10:03;;;;;;;2.53;1.50;;;;;;;12.40;75.06;99404.00;3606547;39;20348;-65
2021/05/16 07:12:31;;;;;;;4.50;1.67;;;;;;;12.57;75.88;99401.44;3606164;39;20044;-64
2021/05/16 07:14:58;;;;;;;2.55;1.60;;;;;;;12.83;76.74;99400.78;3596494;39;20058;-65
2021/05/16 07:17:25;;;;;;;40.72;19.08;;;;;;;13.04;76.75;99401.34;3606553;39;20128;-66
2021/05/16 07:19:53;;;;;;;18.33;10.15;;;;;;;13.27;75.98;99408.84;3605886;39;20066;-64
2021/05/16 07:22:20;;;;;;;7.45;3.58;;;;;;;13.36;74.88;99405.31;3606383;39;20124;-67
2021/05/16 07:24:48;;;;;;;3.42;1.77;;;;;;;13.54;73.53;99411.41;3606140;39;20054;-64
2021/05/16 07:27:15;;;;;;;2.90;1.80;;;;;;;13.55;73.06;99407.00;3605951;39;20073;-64
2021/05/16 07:29:42;;;;;;;3.40;1.55;;;;;;;13.66;72.42;99412.00;3596325;39;20125;-65
2021/05/16 07:32:10;;;;;;;2.72;1.60;;;;;;;13.72;71.77;99413.19;3606330;39;20050;-64
2021/05/16 07:34:37;;;;;;;3.05;1.50;;;;;;;13.80;72.50;99415.91;3606166;39;20050;-62
2021/05/16 07:37:04;;;;;;;2.72;1.70;;;;;;;13.87;73.59;99416.97;3605951;39;20137;-67
2021/05/16 07:39:32;;;;;;;31.77;17.95;;;;;;;13.95;71.22;99416.19;3606134;39;20063;-65
2021/05/16 07:42:00;;;;;;;21.10;11.38;;;;;;;13.88;70.30;99417.78;3605913;39;20056;-65
2021/05/16 07:44:28;;;;;;;6.60;4.10;;;;;;;13.99;71.69;99422.78;3604166;39;20043;-69
2021/05/16 07:46:55;;;;;;;3.50;2.13;;;;;;;13.97;71.37;99417.69;3606365;39;20043;-64
2021/05/16 07:49:22;;;;;;;2.15;1.40;;;;;;;14.06;71.54;99418.59;3606012;39;20142;-67
2021/05/16 07:51:50;;;;;;;2.33;1.40;;;;;;;14.23;72.65;99416.88;3606098;39;20319;-65
2021/05/16 07:54:17;;;;;;;2.95;1.50;;;;;;;14.17;71.52;99420.97;3605992;39;20052;-63
2021/05/16 07:56:45;;;;;;;4.55;2.10;;;;;;;14.41;70.96;99419.47;3605861;39;20051;-65
2021/05/16 07:59:12;;;;;;;3.13;1.50;;;;;;;14.44;70.40;99421.81;3606119;39;20128;-67
2021/05/16 08:01:39;;;;;;;4.20;1.70;;;;;;;14.50;70.70;99429.09;3605927;39;20060;-64
2021/05/16 08:04:07;;;;;;;2.90;1.58;;;;;;;14.42;70.92;99429.00;3605627;39;20454;-68
2021/05/16 08:06:34;;;;;;;6.57;4.05;;;;;;;14.44;70.16;99432.31;3596548;39;20043;-68
2021/05/16 08:09:02;;;;;;;19.55;9.38;;;;;;;14.40;69.01;99434.44;3605861;39;20120;-64
2021/05/16 08:11:30;;;;;;;7.28;3.97;;;;;;;14.33;68.68;99428.94;3603911;39;20059;-67
2021/05/16 08:13:57;;;;;;;3.33;1.80;;;;;;;14.37;70.63;99431.28;3606000;39;20631;-66
2021/05/16 08:16:25;;;;;;;2.38;1.60;;;;;;;14.29;68.18;99434.66;3606051;39;20036;-70
2021/05/16 08:18:52;;;;;;;2.65;1.63;;;;;;;14.35;69.38;99431.44;3605962;39;20047;-66
2021/05/16 08:21:20;;;;;;;2.60;1.42;;;;;;;14.32;70.78;99434.38;3605895;39;20103;-65
2021/05/16 08:23:47;;;;;;;3.92;1.52;;;;;;;14.46;69.42;99427.72;3605946;39;20051;-62
2021/05/16 08:26:15;;;;;;;2.00;1.13;;;;;;;14.42;68.58;99439.53;3596270;39;20401;-66
2021/05/16 08:28:42;;;;;;;2.30;1.23;;;;;;;14.57;68.20;99430.09;3605898;39;20059;-69
2021/05/16 08:31:09;;;;;;;3.17;1.80;;;;;;;14.49;69.55;99433.53;3605801;39;20058;-66
2021/05/16 08:33:36;;;;;;;2.72;1.30;;;;;;;14.20;69.66;99438.25;3605840;39;20128;-67
2021/05/16 08:36:04;;;;;;;7.93;4.10;;;;;;;14.43;68.02;99441.19;3606048;39;20039;-68
2021/05/16 08:38:31;;;;;;;8.07;5.03;;;;;;;14.41;68.21;99437.88;3605408;39;20132;-65
2021/05/16 08:40:59;;;;;;;2.55;1.75;;;;;;;14.35;68.10;99434.91;3605749;39;20044;-67
2021/05/16 08:43:26;;;;;;;3.33;1.95;;;;;;;14.34;67.94;99438.50;3606036;39;20390;-68
2021/05/16 08:45:54;;;;;;;2.85;1.52;;;;;;;14.12;69.14;99433.75;3605774;39;20055;-66
2021/05/16 08:48:22;;;;;;;3.35;1.70;;;;;;;14.24;69.22;99434.31;3605643;39;20055;-67
2021/05/16 08:50:50;;;;;;;2.67;1.63;;;;;;;14.38;69.48;99441.63;3605941;39;20125;-67
2021/05/16 08:53:17;;;;;;;3.05;1.77;;;;;;;14.17;69.63;99444.63;3605527;39;20055;-67
2021/05/16 08:55:44;;;;;;;2.80;1.73;;;;;;;14.15;68.99;99449.22;3605399;39;20047;-64
2021/05/16 08:58:11;;;;;;;2.55;1.83;;;;;;;14.12;69.24;99446.91;3604755;39;20095;-68
2021/05/16 09:00:46;;;;;;;1.85;1.30;;;;;;;14.12;68.36;99444.25;3604931;39;20047;-66
2021/05/16 09:03:17;;;;;;;3.70;1.65;;;;;;;14.07;69.80;99443.91;3604197;39;20071;-65
2021/05/16 09:05:45;;;;;;;2.10;1.20;;;;;;;14.31;69.81;99441.44;3602859;39;20055;-65
2021/05/16 09:08:23;;;;;;;3.45;1.75;;;;;;;14.56;69.37;99437.19;3604689;39;20114;-65
2021/05/16 09:10:59;;;;;;;3.42;1.55;;;;;;;14.70;67.82;99438.41;3604325;39;20052;-63
2021/05/16 09:13:31;;;;;;;2.63;1.40;;;;;;;14.76;67.00;99443.03;3604501;39;20057;-66
2021/05/16 09:16:03;;;;;;;3.57;1.67;;;;;;;14.82;67.45;99452.97;3605026;39;20074;-66
2021/05/16 09:18:53;;;;;;;1.98;1.30;;;;;;;14.98;68.48;99456.66;3605753;39;20493;-65
2021/05/16 09:21:28;;;;;;;3.05;1.42;;;;;;;15.07;67.90;99455.69;3605654;39;20055;-65
2021/05/16 09:24:02;;;;;;;2.13;1.40;;;;;;;15.29;69.79;99455.13;3605594;39;20079;-65
2021/05/16 09:26:31;;;;;;;4.85;1.30;;;;;;;15.77;69.69;99455.41;3604310;39;20436;-67
2021/05/16 09:29:18;;;;;;;2.50;1.60;;;;;;;16.09;66.67;99465.13;3596943;39;20088;-67
2021/05/16 09:31:46;;;;;;;2.50;1.50;;;;;;;16.42;68.90;99459.84;3606434;39;20075;-67
2021/05/16 09:34:14;;;;;;;3.55;1.75;;;;;;;16.77;67.10;99456.00;3606400;39;20062;-67
2021/05/16 09:36:45;;;;;;;3.00;1.70;;;;;;;16.97;66.12;99457.25;3606499;39;20129;-66
2021/05/16 09:39:19;;;;;;;2.45;1.55;;;;;;;17.21;62.97;99453.69;3606242;39;20070;-65
2021/05/16 09:41:56;;;;;;;4.32;1.80;;;;;;;17.29;61.07;99458.13;3606483;39;20043;-67
2021/05/16 09:44:50;;;;;;;1.80;1.27;;;;;;;17.49;62.77;99456.66;3606336;39;20993;-66
2021/05/16 09:47:25;;;;;;;2.50;1.80;;;;;;;17.74;61.88;99465.28;3595040;39;20320;-66
2021/05/16 09:49:55;;;;;;;2.10;1.40;;;;;;;18.02;61.76;99462.94;3606074;39;20124;-67
2021/05/16 09:52:34;;;;;;;2.58;1.70;;;;;;;18.19;62.99;99457.53;3604266;39;20065;-67
2021/05/16 09:55:07;;;;;;;1.88;1.33;;;;;;;18.26;59.06;99459.25;3606633;39;20047;-67
2021/05/16 09:57:36;;;;;;;;;;;;;;;18.43;61.09;99460.75;3605226;39;20048;-68
2021/05/16 10:00:15;;;;;;;2.15;1.40;;;;;;;18.75;57.71;99456.13;3605973;39;19932;-67
2021/05/16 10:02:43;;;;;;;1.95;1.30;;;;;;;18.84;58.24;99448.94;3603847;39;20105;-68
2021/05/16 10:05:14;;;;;;;5.30;1.77;;;;;;;19.07;59.92;99447.00;3606122;39;20066;-67
2021/05/16 10:07:42;;;;;;;2.55;1.42;;;;;;;19.33;59.99;99453.63;3606164;39;20056;-67
2021/05/16 10:10:13;;;;;;;2.78;1.40;;;;;;;19.49;57.61;99439.31;3596606;39;20414;-66
2021/05/16 10:12:42;;;;;;;2.85;1.70;;;;;;;19.58;57.43;99449.63;3605906;39;20057;-67
2021/05/16 10:15:25;;;;;;;3.03;1.60;;;;;;;19.59;53.83;99443.31;3606137;39;20055;-69
2021/05/16 10:17:55;;;;;;;3.83;1.65;;;;;;;19.71;56.02;99440.19;3605829;39;20064;-67
2021/05/16 10:20:26;;;;;;;1.92;1.30;;;;;;;19.86;55.04;99438.28;3606123;39;20039;-67
2021/05/16 10:22:56;;;;;;;2.20;1.30;;;;;;;20.17;55.67;99433.44;3595692;39;20080;-67
2021/05/16 10:25:47;;;;;;;2.63;1.40;;;;;;;20.18;53.04;99443.06;3607929;39;20079;-65
2021/05/16 10:28:39;;;;;;;2.22;1.27;;;;;;;19.99;51.71;99430.47;3607606;39;20070;-66
2021/05/16 10:31:08;;;;;;;2.25;1.27;;;;;;;20.09;56.54;99430.94;3606128;39;20127;-67
2021/05/16 10:33:39;;;;;;;1.55;1.20;;;;;;;20.38;54.83;99434.44;3597922;39;20133;-68
2021/05/16 10:36:06;;;;;;;4.22;1.67;;;;;;;20.69;55.71;99431.38;3607388;39;20044;-68
2021/05/16 10:38:44;;;;;;;3.03;1.20;;;;;;;21.04;53.10;99418.88;3607578;39;20433;-67
2021/05/16 10:41:23;;;;;;;2.20;1.45;;;;;;;21.20;50.36;99420.34;3607378;39;20048;-68
2021/05/16 10:43:51;;;;;;;1.90;1.40;;;;;;;21.05;52.49;99412.53;3607587;39;20055;-68
2021/05/16 10:46:36;;;;;;;2.90;1.30;;;;;;;21.16;49.89;99419.09;3607762;39;20055;-68
2021/05/16 10:49:31;;;;;;;1.92;1.35;;;;;;;20.89;48.84;99418.19;3607682;39;20140;-68
2021/05/16 10:52:28;;;;;;;1.58;1.10;;;;;;;21.15;50.20;99418.28;3602153;39;20052;-67
2021/05/16 10:54:59;;;;;;;7.10;1.70;;;;;;;20.84;49.58;99415.28;3607082;39;20052;-67
2021/05/16 10:57:39;;;;;;;3.80;1.40;;;;;;;21.03;49.64;99411.06;3605478;39;20055;-68
2021/05/16 11:00:27;;;;;;;2.90;1.33;;;;;;;21.30;53.29;99406.69;3607785;39;20043;-69
2021/05/16 11:03:12;;;;;;;1.42;1.17;;;;;;;21.44;51.45;99408.38;3607264;39;20051;-69
2021/05/16 11:08:31;;;;;;;1.70;1.30;;;;;;;21.39;51.70;99408.97;3607434;39;20132;-69
2021/05/16 11:11:01;;;;;;;4.68;1.38;;;;;;;21.63;48.21;99404.13;3581493;39;20090;-69
2021/05/16 11:13:31;;;;;;;2.25;1.25;;;;;;;21.64;49.77;99411.06;3606705;39;20253;-68
2021/05/16 11:16:06;;;;;;;6.65;1.42;;;;;;;21.33;48.60;99411.63;3598030;39;20132;-69
2021/05/16 11:18:35;;;;;;;2.65;1.40;;;;;;;21.43;50.07;99412.88;3607430;39;20671;-68
2021/05/16 11:21:08;;;;;;;3.80;1.13;;;;;;;21.15;48.91;99415.63;3607536;39;20057;-69
2021/05/16 11:23:38;;;;;;;3.97;1.40;;;;;;;21.43;49.38;99414.72;3607628;39;20071;-69
2021/05/16 11:26:09;;;;;;;2.78;1.10;;;;;;;21.43;49.00;99418.19;3607114;39;20044;-68
2021/05/16 11:28:39;;;;;;;2.10;1.20;;;;;;;21.00;48.64;99414.97;3605401;39;20091;-69
2021/05/16 11:31:17;;;;;;;2.15;1.40;;;;;;;21.12;48.19;99415.22;3607327;39;20044;-69
2021/05/16 11:33:47;;;;;;;2.20;1.40;;;;;;;20.86;49.84;99418.59;3607450;39;20053;-68
2021/05/16 11:36:19;;;;;;;3.50;1.30;;;;;;;20.26;49.60;99428.00;3597798;39;20119;-69
2021/05/16 11:38:49;;;;;;;2.03;1.27;;;;;;;20.24;51.80;99425.53;3606935;39;20063;-66
2021/05/16 11:41:33;;;;;;;2.10;1.50;;;;;;;20.78;52.06;99426.72;3605285;39;20050;-69
2021/05/16 11:44:05;;;;;;;2.58;1.58;;;;;;;20.83;51.22;99425.09;3606974;39;20040;-64
2021/05/16 11:46:39;;;;;;;1.70;1.20;;;;;;;21.07;50.24;99423.78;3607153;39;20070;-65
2021/05/16 11:49:08;;;;;;;2.13;1.33;;;;;;;21.37;50.84;99427.00;3597409;39;20044;-68